createdAt,value
2018-07-10T00:00:34.837Z,17.26
2018-07-10T00:01:34.837Z,17.26
2018-07-10T00:02:34.839Z,17.22
2018-07-10T00:03:34.824Z,17.36
2018-07-10T00:04:34.815Z,17.26
2018-07-10T00:05:34.826Z,17.3
2018-07-10T00:06:34.603Z,17.26
2018-07-10T00:07:34.312Z,17.36
2018-07-10T00:08:34.809Z,17.28
2018-07-10T00:09:34.797Z,17.25
2018-07-10T00:10:34.791Z,17.34
2018-07-10T00:11:34.824Z,17.3
2018-07-10T00:12:34.781Z,17.26
2018-07-10T00:13:34.781Z,17.22
2018-07-10T00:14:34.777Z,17.26
2018-07-10T00:15:34.781Z,17.28
2018-07-10T00:16:34.766Z,17.3
2018-07-10T00:17:34.760Z,17.37
2018-07-10T00:18:34.769Z,17.3
2018-07-10T00:19:34.753Z,17.34
2018-07-10T00:20:34.753Z,17.28
2018-07-10T00:21:34.756Z,17.23
2018-07-10T00:22:34.752Z,17.3
2018-07-10T00:23:34.737Z,17.25
2018-07-10T00:24:34.743Z,17.25
2018-07-10T00:25:34.731Z,17.31
2018-07-10T00:26:34.474Z,17.33
2018-07-10T00:27:34.723Z,17.34
2018-07-10T00:28:34.723Z,17.38
2018-07-10T00:29:34.469Z,17.31
2018-07-10T00:30:34.710Z,17.31
2018-07-10T00:31:34.714Z,17.31
2018-07-10T00:32:34.451Z,17.3
2018-07-10T00:33:34.698Z,17.3
2018-07-10T00:34:34.694Z,17.28
2018-07-10T00:35:34.718Z,17.33
2018-07-10T00:36:34.690Z,17.26
2018-07-10T00:37:34.701Z,17.3
2018-07-10T00:38:34.691Z,17.22
2018-07-10T00:39:34.671Z,17.36
2018-07-10T00:40:34.666Z,17.3
2018-07-10T00:41:34.663Z,17.33
2018-07-10T00:42:34.662Z,17.3
2018-07-10T00:43:34.678Z,17.28
2018-07-10T00:44:34.651Z,17.23
2018-07-10T00:45:34.393Z,17.21
2018-07-10T00:46:34.650Z,17.15
2018-07-10T00:47:34.140Z,17.16
2018-07-10T00:48:34.391Z,17.11
2018-07-10T00:49:34.632Z,17.14
2018-07-10T00:50:34.631Z,17.07
2018-07-10T00:51:34.620Z,17.18
2018-07-10T00:52:34.369Z,17.12
2018-07-10T00:53:34.613Z,17.11
2018-07-10T00:54:34.363Z,17.16
2018-07-10T00:55:34.616Z,17.18
2018-07-10T00:56:34.614Z,17.18
2018-07-10T00:57:34.352Z,17.25
2018-07-10T00:58:34.359Z,17.21
2018-07-10T00:59:34.339Z,17.25
2018-07-10T01:00:34.590Z,17.34
2018-07-10T01:01:34.328Z,17.36
2018-07-10T01:02:34.580Z,17.36
2018-07-10T01:03:34.325Z,17.28
2018-07-10T01:04:34.573Z,17.36
2018-07-10T01:05:34.569Z,17.23
2018-07-10T01:06:34.566Z,17.3
2018-07-10T01:07:34.310Z,17.26
2018-07-10T01:08:34.554Z,17.3
2018-07-10T01:09:34.297Z,17.22
2018-07-10T01:10:34.543Z,17.3
2018-07-10T01:11:34.546Z,17.28
2018-07-10T01:12:34.547Z,17.23
2018-07-10T01:13:34.530Z,17.22
2018-07-10T01:14:34.287Z,17.15
2018-07-10T01:15:34.527Z,17.15
2018-07-10T01:16:34.536Z,17.14
2018-07-10T01:17:34.541Z,17.11
2018-07-10T01:18:34.258Z,17.08
2018-07-10T01:19:34.514Z,17.04
2018-07-10T01:20:34.509Z,17.03
2018-07-10T01:21:34.508Z,16.97
2018-07-10T01:22:34.496Z,17.04
2018-07-10T01:23:34.495Z,16.98
2018-07-10T01:24:34.491Z,16.98
2018-07-10T01:25:34.736Z,16.97
2018-07-10T01:26:34.486Z,16.88
2018-07-10T01:27:34.476Z,16.91
2018-07-10T01:28:34.471Z,16.82
2018-07-10T01:29:34.465Z,16.89
2018-07-10T01:30:34.462Z,16.98
2018-07-10T01:31:34.458Z,16.91
2018-07-10T01:32:34.450Z,16.91
2018-07-10T01:33:34.471Z,16.81
2018-07-10T01:34:34.448Z,16.85
2018-07-10T01:35:34.189Z,16.82
2018-07-10T01:36:34.436Z,16.79
2018-07-10T01:37:34.441Z,16.79
2018-07-10T01:38:34.175Z,16.81
2018-07-10T01:39:34.423Z,16.81
2018-07-10T01:40:34.165Z,16.75
2018-07-10T01:41:34.413Z,16.73
2018-07-10T01:42:34.413Z,16.71
2018-07-10T01:43:34.409Z,16.7
2018-07-10T01:44:34.400Z,16.66
2018-07-10T01:45:34.395Z,16.71
2018-07-10T01:46:34.144Z,16.64
2018-07-10T01:47:34.394Z,16.61
2018-07-10T01:48:34.136Z,16.5
2018-07-10T01:49:34.140Z,16.6
2018-07-10T01:50:34.375Z,16.56
2018-07-10T01:51:34.368Z,16.6
2018-07-10T01:52:34.385Z,16.57
2018-07-10T01:53:34.365Z,16.57
2018-07-10T01:54:34.358Z,16.49
2018-07-10T01:55:34.361Z,16.53
2018-07-10T01:56:34.750Z,16.46
2018-07-10T01:57:34.352Z,16.5
2018-07-10T01:58:34.338Z,16.46
2018-07-10T01:59:34.082Z,16.41
2018-07-10T02:00:34.081Z,16.45
2018-07-10T02:01:34.326Z,16.48
2018-07-10T02:02:34.320Z,16.48
2018-07-10T02:03:34.318Z,16.43
2018-07-10T02:04:34.311Z,16.39
2018-07-10T02:05:34.308Z,16.43
2018-07-10T02:06:34.304Z,16.38
2018-07-10T02:07:34.310Z,16.38
2018-07-10T02:08:34.293Z,16.31
2018-07-10T02:09:34.039Z,16.38
2018-07-10T02:10:34.285Z,16.34
2018-07-10T02:11:34.282Z,16.25
2018-07-10T02:12:34.279Z,16.25
2018-07-10T02:13:34.282Z,16.25
2018-07-10T02:14:34.267Z,16.12
2018-07-10T02:15:34.261Z,16.2
2018-07-10T02:16:34.255Z,16.12
2018-07-10T02:17:34.249Z,16.23
2018-07-10T02:18:33.994Z,16.11
2018-07-10T02:19:34.241Z,16.23
2018-07-10T02:20:34.237Z,16.12
2018-07-10T02:21:34.233Z,16.11
2018-07-10T02:22:34.231Z,16.11
2018-07-10T02:23:34.232Z,16.15
2018-07-10T02:24:34.235Z,16.11
2018-07-10T02:25:34.213Z,16.12
2018-07-10T02:26:34.208Z,16.07
2018-07-10T02:27:34.203Z,16.15
2018-07-10T02:28:34.200Z,16.2
2018-07-10T02:29:34.193Z,16.11
2018-07-10T02:30:34.194Z,16.07
2018-07-10T02:31:34.244Z,16.08
2018-07-10T02:32:34.182Z,16.11
2018-07-10T02:33:34.181Z,16.11
2018-07-10T02:34:34.171Z,15.97
2018-07-10T02:35:34.167Z,16.07
2018-07-10T02:36:34.169Z,16.08
2018-07-10T02:37:34.158Z,15.97
2018-07-10T02:38:34.164Z,15.97
2018-07-10T02:39:34.155Z,15.96
2018-07-10T02:40:34.144Z,16
2018-07-10T02:41:34.141Z,15.97
2018-07-10T02:42:34.135Z,16.02
2018-07-10T02:43:34.139Z,15.97
2018-07-10T02:44:34.123Z,16.05
2018-07-10T02:45:34.130Z,15.94
2018-07-10T02:46:34.117Z,16.02
2018-07-10T02:47:34.118Z,16.02
2018-07-10T02:48:33.871Z,15.94
2018-07-10T02:49:34.108Z,16
2018-07-10T02:50:34.098Z,16
2018-07-10T02:51:34.104Z,15.96
2018-07-10T02:52:34.088Z,15.92
2018-07-10T02:53:34.092Z,15.96
2018-07-10T02:54:33.828Z,15.97
2018-07-10T02:55:34.105Z,16
2018-07-10T02:56:34.070Z,15.97
2018-07-10T02:57:34.059Z,16
2018-07-10T02:58:34.057Z,16
2018-07-10T02:59:33.800Z,15.97
2018-07-10T03:00:34.061Z,15.94
2018-07-10T03:01:33.806Z,16
2018-07-10T03:02:34.043Z,16
2018-07-10T03:03:34.041Z,15.96
2018-07-10T03:04:33.786Z,15.97
2018-07-10T03:05:33.782Z,15.96
2018-07-10T03:06:34.030Z,16
2018-07-10T03:07:33.774Z,15.94
2018-07-10T03:08:33.760Z,15.94
2018-07-10T03:09:34.015Z,16
2018-07-10T03:10:34.000Z,15.96
2018-07-10T03:11:33.745Z,15.96
2018-07-10T03:12:33.986Z,16
2018-07-10T03:13:33.984Z,16
2018-07-10T03:14:33.978Z,16.01
2018-07-10T03:15:33.974Z,16
2018-07-10T03:16:33.973Z,16
2018-07-10T03:17:33.981Z,16.02
2018-07-10T03:18:33.965Z,15.97
2018-07-10T03:19:33.963Z,15.94
2018-07-10T03:20:33.951Z,16.01
2018-07-10T03:21:33.952Z,16.05
2018-07-10T03:22:33.943Z,15.96
2018-07-10T03:23:33.944Z,16.02
2018-07-10T03:24:33.940Z,16.05
2018-07-10T03:25:33.674Z,16.07
2018-07-10T03:26:33.922Z,15.96
2018-07-10T03:27:33.915Z,16.11
2018-07-10T03:28:33.659Z,16.01
2018-07-10T03:29:33.655Z,15.96
2018-07-10T03:30:33.906Z,15.93
2018-07-10T03:31:33.899Z,16
2018-07-10T03:32:33.893Z,15.97
2018-07-10T03:33:33.637Z,16.04
2018-07-10T03:34:33.631Z,16.01
2018-07-10T03:35:33.878Z,16.07
2018-07-10T03:36:34.143Z,16.04
2018-07-10T03:37:33.616Z,16
2018-07-10T03:38:33.866Z,15.97
2018-07-10T03:39:33.862Z,16.07
2018-07-10T03:40:33.601Z,15.92
2018-07-10T03:41:33.854Z,15.92
2018-07-10T03:42:33.856Z,16.04
2018-07-10T03:43:33.846Z,16.04
2018-07-10T03:44:33.580Z,16.02
2018-07-10T03:45:33.577Z,16.01
2018-07-10T03:46:33.828Z,16
2018-07-10T03:47:33.827Z,15.92
2018-07-10T03:48:33.566Z,16.01
2018-07-10T03:49:33.559Z,16.07
2018-07-10T03:50:33.553Z,16.09
2018-07-10T03:51:33.801Z,16.09
2018-07-10T03:52:33.543Z,16.12
2018-07-10T03:53:33.549Z,16.11
2018-07-10T03:54:33.786Z,16.23
2018-07-10T03:55:33.780Z,16.11
2018-07-10T03:56:33.527Z,16.11
2018-07-10T03:57:33.774Z,16.2
2018-07-10T03:58:33.772Z,16.3
2018-07-10T03:59:33.763Z,16.25
2018-07-10T04:00:33.505Z,16.31
2018-07-10T04:01:34.110Z,16.31
2018-07-10T04:02:33.752Z,16.34
2018-07-10T04:03:33.744Z,16.42
2018-07-10T04:04:33.743Z,16.48
2018-07-10T04:05:33.737Z,16.52
2018-07-10T04:06:33.727Z,16.61
2018-07-10T04:07:33.724Z,16.58
2018-07-10T04:08:33.468Z,16.63
2018-07-10T04:09:33.715Z,16.7
2018-07-10T04:10:33.458Z,16.73
2018-07-10T04:11:33.453Z,16.71
2018-07-10T04:12:33.706Z,16.82
2018-07-10T04:13:33.695Z,16.85
2018-07-10T04:14:33.690Z,16.89
2018-07-10T04:15:33.694Z,16.94
2018-07-10T04:16:33.690Z,16.97
2018-07-10T04:17:33.430Z,17
2018-07-10T04:18:33.424Z,17.04
2018-07-10T04:19:33.419Z,17.15
2018-07-10T04:20:33.666Z,17.18
2018-07-10T04:21:33.659Z,17.07
2018-07-10T04:22:33.659Z,17.19
2018-07-10T04:23:33.659Z,17.25
2018-07-10T04:24:33.650Z,17.28
2018-07-10T04:25:33.645Z,17.33
2018-07-10T04:26:33.642Z,17.37
2018-07-10T04:27:33.635Z,17.33
2018-07-10T04:28:33.636Z,17.4
2018-07-10T04:29:33.374Z,17.41
2018-07-10T04:30:33.630Z,17.54
2018-07-10T04:31:33.364Z,17.46
2018-07-10T04:32:33.611Z,17.54
2018-07-10T04:33:33.358Z,17.63
2018-07-10T04:34:33.351Z,17.56
2018-07-10T04:35:33.608Z,17.59
2018-07-10T04:36:33.349Z,17.68
2018-07-10T04:37:33.596Z,17.63
2018-07-10T04:38:33.598Z,17.71
2018-07-10T04:39:33.582Z,17.77
2018-07-10T04:40:33.577Z,17.77
2018-07-10T04:41:33.377Z,17.81
2018-07-10T04:42:33.714Z,17.81
2018-07-10T04:43:33.571Z,17.86
2018-07-10T04:44:33.564Z,17.84
2018-07-10T04:45:33.563Z,17.79
2018-07-10T04:46:33.561Z,17.95
2018-07-10T04:47:33.551Z,17.89
2018-07-10T04:48:33.297Z,17.95
2018-07-10T04:49:33.683Z,17.99
2018-07-10T04:50:33.542Z,18.11
2018-07-10T04:51:33.539Z,18.12
2018-07-10T04:52:33.533Z,18.17
2018-07-10T04:53:33.275Z,18.17
2018-07-10T04:54:33.528Z,18.26
2018-07-10T04:55:33.379Z,18.23
2018-07-10T04:56:33.517Z,18.35
2018-07-10T04:57:33.514Z,18.33
2018-07-10T04:58:33.511Z,18.3
2018-07-10T04:59:33.256Z,18.32
2018-07-10T05:00:33.258Z,18.37
2018-07-10T05:01:33.533Z,18.39
2018-07-10T05:02:33.495Z,18.42
2018-07-10T05:03:33.743Z,18.33
2018-07-10T05:04:33.238Z,18.35
2018-07-10T05:05:33.493Z,18.33
2018-07-10T05:06:33.489Z,18.29
2018-07-10T05:07:33.479Z,18.42
2018-07-10T05:08:33.472Z,18.39
2018-07-10T05:09:33.229Z,18.42
2018-07-10T05:10:33.215Z,18.32
2018-07-10T05:11:33.216Z,18.33
2018-07-10T05:12:33.464Z,18.32
2018-07-10T05:13:33.202Z,18.39
2018-07-10T05:14:33.451Z,18.33
2018-07-10T05:15:33.453Z,18.37
2018-07-10T05:16:33.446Z,18.32
2018-07-10T05:17:33.459Z,18.39
2018-07-10T05:18:33.438Z,18.39
2018-07-10T05:19:33.439Z,18.44
2018-07-10T05:20:33.197Z,18.42
2018-07-10T05:21:33.428Z,18.52
2018-07-10T05:22:33.424Z,18.47
2018-07-10T05:23:33.418Z,18.5
2018-07-10T05:24:33.165Z,18.6
2018-07-10T05:25:33.413Z,18.52
2018-07-10T05:26:33.409Z,18.5
2018-07-10T05:27:33.155Z,18.5
2018-07-10T05:28:33.403Z,18.52
2018-07-10T05:29:33.407Z,18.57
2018-07-10T05:30:33.399Z,18.57
2018-07-10T05:31:33.394Z,18.5
2018-07-10T05:32:33.393Z,18.41
2018-07-10T05:33:33.135Z,18.5
2018-07-10T05:34:33.380Z,18.47
2018-07-10T05:35:33.378Z,18.44
2018-07-10T05:36:33.380Z,18.44
2018-07-10T05:37:33.381Z,18.33
2018-07-10T05:38:33.370Z,18.37
2018-07-10T05:39:33.378Z,18.27
2018-07-10T05:40:33.367Z,18.39
2018-07-10T05:41:33.358Z,18.3
2018-07-10T05:42:33.106Z,18.36
2018-07-10T05:43:33.350Z,18.35
2018-07-10T05:44:32.854Z,18.41
2018-07-10T05:45:33.398Z,18.35
2018-07-10T05:46:33.612Z,18.37
2018-07-10T05:47:33.339Z,18.45
2018-07-10T05:48:33.336Z,18.36
2018-07-10T05:49:33.327Z,18.41
2018-07-10T05:50:33.328Z,18.33
2018-07-10T05:51:33.325Z,18.42
2018-07-10T05:52:33.335Z,18.27
2018-07-10T05:53:33.064Z,18.29
2018-07-10T05:54:33.313Z,18.32
2018-07-10T05:55:33.311Z,18.2
2018-07-10T05:56:33.054Z,18.25
2018-07-10T05:57:33.301Z,18.17
2018-07-10T05:58:33.512Z,18.05
2018-07-10T05:59:33.302Z,18.11
2018-07-10T06:00:33.306Z,17.99
2018-07-10T06:01:33.331Z,18.03
2018-07-10T06:02:33.309Z,17.93
2018-07-10T06:03:33.283Z,17.92
2018-07-10T06:04:33.124Z,17.87
2018-07-10T06:05:33.279Z,17.89
2018-07-10T06:06:33.270Z,17.87
2018-07-10T06:07:33.265Z,17.9
2018-07-10T06:08:33.267Z,17.96
2018-07-10T06:09:33.005Z,18.03
2018-07-10T06:10:33.554Z,18.08
2018-07-10T06:11:33.251Z,18.14
2018-07-10T06:12:33.012Z,18.11
2018-07-10T06:13:33.244Z,18.12
2018-07-10T06:14:32.987Z,18.14
2018-07-10T06:15:33.236Z,18.17
2018-07-10T06:16:32.984Z,18.2
2018-07-10T06:17:32.985Z,18.26
2018-07-10T06:18:33.244Z,18.26
2018-07-10T06:19:32.970Z,18.2
2018-07-10T06:20:33.220Z,18.35
2018-07-10T06:21:32.963Z,18.29
2018-07-10T06:22:32.962Z,18.32
2018-07-10T06:23:33.205Z,18.45
2018-07-10T06:24:33.207Z,18.41
2018-07-10T06:25:33.211Z,18.48
2018-07-10T06:26:33.205Z,18.63
2018-07-10T06:27:33.190Z,18.66
2018-07-10T06:28:33.187Z,18.81
2018-07-10T06:29:33.184Z,18.84
2018-07-10T06:30:33.357Z,18.82
2018-07-10T06:31:33.177Z,18.91
2018-07-10T06:32:32.923Z,18.98
2018-07-10T06:33:32.923Z,19.02
2018-07-10T06:34:33.172Z,19.25
2018-07-10T06:35:32.912Z,19.23
2018-07-10T06:36:33.160Z,19.29
2018-07-10T06:37:33.174Z,19.31
2018-07-10T06:38:33.162Z,19.46
2018-07-10T06:39:33.163Z,19.51
2018-07-10T06:40:33.148Z,19.56
2018-07-10T06:41:33.144Z,19.48
2018-07-10T06:42:33.142Z,19.59
2018-07-10T06:43:33.147Z,19.63
2018-07-10T06:44:33.140Z,19.69
2018-07-10T06:45:33.138Z,19.62
2018-07-10T06:46:33.134Z,19.68
2018-07-10T06:47:33.136Z,19.78
2018-07-10T06:48:32.882Z,19.83
2018-07-10T06:49:33.159Z,19.8
2018-07-10T06:50:33.126Z,19.94
2018-07-10T06:51:33.135Z,19.92
2018-07-10T06:52:33.579Z,20.06
2018-07-10T06:53:33.673Z,20.08
2018-07-10T06:54:32.875Z,20.13
2018-07-10T06:55:33.112Z,20.13
2018-07-10T06:56:33.104Z,20.31
2018-07-10T06:57:33.102Z,20.28
2018-07-10T06:58:32.846Z,20.23
2018-07-10T06:59:33.111Z,20.31
2018-07-10T07:00:33.119Z,20.29
2018-07-10T07:01:33.094Z,20.32
2018-07-10T07:02:32.836Z,20.33
2018-07-10T07:03:33.086Z,20.35
2018-07-10T07:04:33.096Z,20.39
2018-07-10T07:05:33.080Z,20.39
2018-07-10T07:06:33.076Z,20.31
2018-07-10T07:07:32.596Z,20.23
2018-07-10T07:08:33.341Z,20.29
2018-07-10T07:09:33.070Z,20.17
2018-07-10T07:10:33.090Z,20.2
2018-07-10T07:11:33.082Z,20.05
2018-07-10T07:12:33.065Z,20.06
2018-07-10T07:13:33.069Z,20.08
2018-07-10T07:14:33.060Z,20.05
2018-07-10T07:15:32.809Z,20.08
2018-07-10T07:16:33.058Z,20.02
2018-07-10T07:17:32.807Z,20.08
2018-07-10T07:18:32.799Z,20.02
2018-07-10T07:19:33.064Z,20.03
2018-07-10T07:20:33.055Z,20.11
2018-07-10T07:21:33.048Z,20.23
2018-07-10T07:22:32.800Z,20.18
2018-07-10T07:23:33.048Z,20.16
2018-07-10T07:24:33.054Z,20.24
2018-07-10T07:25:33.041Z,20.38
2018-07-10T07:26:33.034Z,20.42
2018-07-10T07:27:33.031Z,20.39
2018-07-10T07:28:33.051Z,20.36
2018-07-10T07:29:33.024Z,20.31
2018-07-10T07:30:33.034Z,20.24
2018-07-10T07:31:33.025Z,20.21
2018-07-10T07:32:33.018Z,20.29
2018-07-10T07:33:32.764Z,20.23
2018-07-10T07:34:33.016Z,20.08
2018-07-10T07:35:33.016Z,20.08
2018-07-10T07:36:32.762Z,20.16
2018-07-10T07:37:32.754Z,20.23
2018-07-10T07:38:32.750Z,20.17
2018-07-10T07:39:33.266Z,20.28
2018-07-10T07:40:32.751Z,20.21
2018-07-10T07:41:33.001Z,20.35
2018-07-10T07:42:33.021Z,20.36
2018-07-10T07:43:32.743Z,20.51
2018-07-10T07:44:32.863Z,20.62
2018-07-10T07:45:32.769Z,20.66
2018-07-10T07:46:32.744Z,20.79
2018-07-10T07:47:33.019Z,20.88
2018-07-10T07:48:33.005Z,21.04
2018-07-10T07:49:32.732Z,21.16
2018-07-10T07:50:32.979Z,21.25
2018-07-10T07:51:32.723Z,21.35
2018-07-10T07:52:33.226Z,21.35
2018-07-10T07:53:32.983Z,21.43
2018-07-10T07:54:32.972Z,21.5
2018-07-10T07:55:32.969Z,21.59
2018-07-10T07:56:32.715Z,21.59
2018-07-10T07:57:32.964Z,21.74
2018-07-10T07:58:33.214Z,21.8
2018-07-10T07:59:33.008Z,21.88
2018-07-10T08:00:32.985Z,21.88
2018-07-10T08:01:32.710Z,21.96
2018-07-10T08:02:32.745Z,21.91
2018-07-10T08:03:32.960Z,21.84
2018-07-10T08:04:32.962Z,21.72
2018-07-10T08:05:32.967Z,21.67
2018-07-10T08:06:32.971Z,21.67
2018-07-10T08:07:32.980Z,21.54
2018-07-10T08:08:32.954Z,21.53
2018-07-10T08:09:32.960Z,21.54
2018-07-10T08:10:33.215Z,21.61
2018-07-10T08:11:32.953Z,21.54
2018-07-10T08:12:32.955Z,21.52
2018-07-10T08:13:32.948Z,21.62
2018-07-10T08:14:32.706Z,21.69
2018-07-10T08:15:32.961Z,21.62
2018-07-10T08:16:32.951Z,21.67
2018-07-10T08:17:32.711Z,21.61
2018-07-10T08:18:32.949Z,21.58
2018-07-10T08:19:32.943Z,21.53
2018-07-10T08:20:32.437Z,21.52
2018-07-10T08:21:32.441Z,21.49
2018-07-10T08:22:32.939Z,21.49
2018-07-10T08:23:32.685Z,21.35
2018-07-10T08:24:33.093Z,21.4
2018-07-10T08:25:32.937Z,21.25
2018-07-10T08:26:32.939Z,21.19
2018-07-10T08:27:32.939Z,21.14
2018-07-10T08:28:32.683Z,21.17
2018-07-10T08:29:32.932Z,21.13
2018-07-10T08:30:32.681Z,21.1
2018-07-10T08:31:32.675Z,21.09
2018-07-10T08:32:32.930Z,20.99
2018-07-10T08:33:33.346Z,20.97
2018-07-10T08:34:32.951Z,21.03
2018-07-10T08:35:32.927Z,20.95
2018-07-10T08:36:32.416Z,20.99
2018-07-10T08:37:32.915Z,21.01
2018-07-10T08:38:32.662Z,21.03
2018-07-10T08:39:32.677Z,21.03
2018-07-10T08:40:32.913Z,21.04
2018-07-10T08:41:32.913Z,21.12
2018-07-10T08:42:32.916Z,21.07
2018-07-10T08:43:32.912Z,21.14
2018-07-10T08:44:32.914Z,21.14
2018-07-10T08:45:32.911Z,21.35
2018-07-10T08:46:32.650Z,21.34
2018-07-10T08:47:32.903Z,21.49
2018-07-10T08:48:32.646Z,21.62
2018-07-10T08:49:32.916Z,21.5
2018-07-10T08:50:32.920Z,21.58
2018-07-10T08:51:32.894Z,21.64
2018-07-10T08:52:32.906Z,21.69
2018-07-10T08:53:32.641Z,21.84
2018-07-10T08:54:32.639Z,21.86
2018-07-10T08:55:32.892Z,21.9
2018-07-10T08:56:32.916Z,22.06
2018-07-10T08:57:32.886Z,22.05
2018-07-10T08:58:32.633Z,22.2
2018-07-10T08:59:32.893Z,22.07
2018-07-10T09:00:32.895Z,22.15
2018-07-10T09:01:32.643Z,22.2
2018-07-10T09:02:32.640Z,22.28
2018-07-10T09:03:32.377Z,22.2
2018-07-10T09:04:32.885Z,22.31
2018-07-10T09:05:32.880Z,22.46
2018-07-10T09:06:32.879Z,22.49
2018-07-10T09:07:32.887Z,22.57
2018-07-10T09:08:32.884Z,22.64
2018-07-10T09:09:32.644Z,22.79
2018-07-10T09:10:32.650Z,22.94
2018-07-10T09:11:32.934Z,22.92
2018-07-10T09:12:32.911Z,23.01
2018-07-10T09:13:32.878Z,23.13
2018-07-10T09:14:32.883Z,23.25
2018-07-10T09:15:32.889Z,23.35
2018-07-10T09:16:32.628Z,23.4
2018-07-10T09:17:32.878Z,23.57
2018-07-10T09:18:32.870Z,23.58
2018-07-10T09:19:32.878Z,23.6
2018-07-10T09:20:32.900Z,23.7
2018-07-10T09:21:32.875Z,23.78
2018-07-10T09:22:32.877Z,23.8
2018-07-10T09:23:32.880Z,23.7
2018-07-10T09:24:32.623Z,23.69
2018-07-10T09:25:32.622Z,23.7
2018-07-10T09:26:32.631Z,23.84
2018-07-10T09:27:32.882Z,23.84
2018-07-10T09:28:32.884Z,23.97
2018-07-10T09:29:32.632Z,24.08
2018-07-10T09:30:32.901Z,24.12
2018-07-10T09:31:32.659Z,24.22
2018-07-10T09:32:32.890Z,24.31
2018-07-10T09:33:32.750Z,24.35
2018-07-10T09:34:32.389Z,24.34
2018-07-10T09:35:32.639Z,24.37
2018-07-10T09:36:32.897Z,24.35
2018-07-10T09:37:32.915Z,24.39
2018-07-10T09:38:32.650Z,24.42
2018-07-10T09:39:32.891Z,24.53
2018-07-10T09:40:32.652Z,24.62
2018-07-10T09:41:32.905Z,24.77
2018-07-10T09:42:32.643Z,24.81
2018-07-10T09:43:32.947Z,25.03
2018-07-10T09:44:32.899Z,25.03
2018-07-10T09:45:32.905Z,25.06
2018-07-10T09:46:32.905Z,25.15
2018-07-10T09:47:32.928Z,25.24
2018-07-10T09:48:32.915Z,25.27
2018-07-10T09:49:32.660Z,25.35
2018-07-10T09:50:33.326Z,25.36
2018-07-10T09:51:32.916Z,25.45
2018-07-10T09:52:32.673Z,25.57
2018-07-10T09:53:32.673Z,25.69
2018-07-10T09:54:32.927Z,25.73
2018-07-10T09:55:32.929Z,25.83
2018-07-10T09:56:33.012Z,25.95
2018-07-10T09:57:32.728Z,25.94
2018-07-10T09:58:32.955Z,25.99
2018-07-10T09:59:32.703Z,25.95
2018-07-10T10:00:32.693Z,25.99
2018-07-10T10:01:32.975Z,25.97
2018-07-10T10:02:32.705Z,25.9
2018-07-10T10:03:32.705Z,25.87
2018-07-10T10:04:32.705Z,25.83
2018-07-10T10:05:32.975Z,25.95
2018-07-10T10:06:32.976Z,25.95
2018-07-10T10:07:32.977Z,26.02
2018-07-10T10:08:33.264Z,26.23
2018-07-10T10:09:32.997Z,26.32
2018-07-10T10:10:32.739Z,26.37
2018-07-10T10:11:32.983Z,26.36
2018-07-10T10:12:32.986Z,26.25
2018-07-10T10:13:32.738Z,26.2
2018-07-10T10:14:32.762Z,26.26
2018-07-10T10:15:32.995Z,26.32
2018-07-10T10:16:33.004Z,26.3
2018-07-10T10:17:33.022Z,26.45
2018-07-10T10:18:33.018Z,26.4
2018-07-10T10:19:32.758Z,26.5
2018-07-10T10:20:33.017Z,26.51
2018-07-10T10:21:33.027Z,26.51
2018-07-10T10:22:32.772Z,26.52
2018-07-10T10:23:32.773Z,26.55
2018-07-10T10:24:33.038Z,26.54
2018-07-10T10:25:32.780Z,26.6
2018-07-10T10:26:33.042Z,26.55
2018-07-10T10:27:33.045Z,26.69
2018-07-10T10:28:33.042Z,26.8
2018-07-10T10:29:32.800Z,26.92
2018-07-10T10:30:32.804Z,27
2018-07-10T10:31:33.061Z,26.97
2018-07-10T10:32:33.063Z,27.14
2018-07-10T10:33:32.827Z,27.07
2018-07-10T10:34:33.079Z,27.02
2018-07-10T10:35:33.077Z,27.06
2018-07-10T10:36:33.090Z,27
2018-07-10T10:37:33.082Z,26.97
2018-07-10T10:38:32.879Z,26.89
2018-07-10T10:39:33.093Z,26.81
2018-07-10T10:40:33.129Z,26.76
2018-07-10T10:41:33.293Z,26.77
2018-07-10T10:42:32.845Z,26.69
2018-07-10T10:43:33.106Z,26.8
2018-07-10T10:44:32.867Z,26.69
2018-07-10T10:45:33.351Z,26.76
2018-07-10T10:46:33.388Z,26.77
2018-07-10T10:47:33.123Z,26.65
2018-07-10T10:48:33.131Z,26.69
2018-07-10T10:49:33.209Z,26.67
2018-07-10T10:50:32.874Z,26.62
2018-07-10T10:51:32.877Z,26.55
2018-07-10T10:52:33.150Z,26.5
2018-07-10T10:53:33.146Z,26.5
2018-07-10T10:54:33.168Z,26.47
2018-07-10T10:55:33.158Z,26.39
2018-07-10T10:56:32.954Z,26.29
2018-07-10T10:57:33.153Z,26.32
2018-07-10T10:58:33.170Z,26.28
2018-07-10T10:59:33.163Z,26.3
2018-07-10T11:00:33.206Z,26.4
2018-07-10T11:01:33.195Z,26.37
2018-07-10T11:02:33.180Z,26.35
2018-07-10T11:03:33.176Z,26.25
2018-07-10T11:04:32.920Z,26.13
2018-07-10T11:05:33.198Z,26.02
2018-07-10T11:06:33.183Z,25.99
2018-07-10T11:07:33.174Z,25.97
2018-07-10T11:08:33.198Z,26.02
2018-07-10T11:09:33.203Z,26.01
2018-07-10T11:10:33.202Z,25.98
2018-07-10T11:11:32.947Z,26.12
2018-07-10T11:12:33.207Z,26.13
2018-07-10T11:13:33.196Z,26.23
2018-07-10T11:14:32.950Z,26.33
2018-07-10T11:15:33.470Z,26.45
2018-07-10T11:16:33.214Z,26.52
2018-07-10T11:17:33.468Z,26.62
2018-07-10T11:18:33.227Z,26.67
2018-07-10T11:19:33.219Z,26.65
2018-07-10T11:20:32.963Z,26.66
2018-07-10T11:21:32.968Z,26.82
2018-07-10T11:22:33.220Z,26.91
2018-07-10T11:23:33.225Z,26.95
2018-07-10T11:24:33.236Z,26.99
2018-07-10T11:25:33.235Z,26.95
2018-07-10T11:26:33.239Z,26.97
2018-07-10T11:27:33.236Z,26.92
2018-07-10T11:28:33.245Z,26.89
2018-07-10T11:29:32.740Z,26.8
2018-07-10T11:30:33.498Z,26.82
2018-07-10T11:31:33.036Z,26.7
2018-07-10T11:32:33.005Z,26.85
2018-07-10T11:33:33.258Z,26.85
2018-07-10T11:34:33.269Z,26.85
2018-07-10T11:35:33.281Z,26.81
2018-07-10T11:36:33.277Z,26.69
2018-07-10T11:37:33.516Z,26.72
2018-07-10T11:38:33.292Z,26.69
2018-07-10T11:39:33.031Z,26.65
2018-07-10T11:40:33.307Z,26.62
2018-07-10T11:41:33.287Z,26.58
2018-07-10T11:42:33.292Z,26.57
2018-07-10T11:43:33.363Z,26.51
2018-07-10T11:44:33.300Z,26.37
2018-07-10T11:45:33.326Z,26.29
2018-07-10T11:46:33.350Z,26.09
2018-07-10T11:47:33.317Z,26.02
2018-07-10T11:48:33.316Z,25.92
2018-07-10T11:49:33.315Z,25.83
2018-07-10T11:50:33.348Z,25.82
2018-07-10T11:51:33.635Z,25.7
2018-07-10T11:52:33.338Z,25.57
2018-07-10T11:53:33.340Z,25.42
2018-07-10T11:54:33.336Z,25.35
2018-07-10T11:55:33.337Z,25.35
2018-07-10T11:56:33.370Z,25.2
2018-07-10T11:57:33.350Z,25.24
2018-07-10T11:58:33.349Z,25.06
2018-07-10T11:59:33.104Z,24.91
2018-07-10T12:00:33.351Z,24.8
2018-07-10T12:01:33.354Z,24.58
2018-07-10T12:02:33.096Z,24.47
2018-07-10T12:03:33.363Z,24.18
2018-07-10T12:04:33.107Z,24.2
2018-07-10T12:05:33.131Z,24.09
2018-07-10T12:06:33.107Z,23.94
2018-07-10T12:07:33.360Z,23.84
2018-07-10T12:08:33.369Z,23.76
2018-07-10T12:09:33.374Z,23.8
2018-07-10T12:10:33.363Z,23.79
2018-07-10T12:11:33.366Z,23.78
2018-07-10T12:12:33.197Z,23.78
2018-07-10T12:13:33.382Z,23.8
2018-07-10T12:14:33.374Z,23.8
2018-07-10T12:15:33.370Z,23.83
2018-07-10T12:16:33.776Z,23.72
2018-07-10T12:17:33.372Z,23.72
2018-07-10T12:18:33.123Z,23.72
2018-07-10T12:19:33.380Z,23.69
2018-07-10T12:20:33.369Z,23.65
2018-07-10T12:21:33.386Z,23.72
2018-07-10T12:22:33.124Z,23.72
2018-07-10T12:23:33.380Z,23.55
2018-07-10T12:24:33.124Z,23.46
2018-07-10T12:25:33.124Z,23.27
2018-07-10T12:26:33.372Z,23.16
2018-07-10T12:27:33.142Z,22.98
2018-07-10T12:28:33.126Z,22.92
2018-07-10T12:29:33.372Z,22.88
2018-07-10T12:30:33.371Z,22.77
2018-07-10T12:31:33.122Z,22.62
2018-07-10T12:32:33.370Z,22.47
2018-07-10T12:33:33.375Z,22.51
2018-07-10T12:34:33.371Z,22.47
2018-07-10T12:35:33.383Z,22.37
2018-07-10T12:36:33.125Z,22.39
2018-07-10T12:37:33.389Z,22.31
2018-07-10T12:38:33.369Z,22.27
2018-07-10T12:39:33.375Z,22.3
2018-07-10T12:40:33.381Z,22.39
2018-07-10T12:41:33.433Z,22.3
2018-07-10T12:42:33.402Z,22.3
2018-07-10T12:43:33.368Z,22.3
2018-07-10T12:44:33.386Z,22.33
2018-07-10T12:45:33.122Z,22.47
2018-07-10T12:46:33.392Z,22.6
2018-07-10T12:47:33.374Z,22.61
2018-07-10T12:48:33.367Z,22.8
2018-07-10T12:49:33.665Z,22.9
2018-07-10T12:50:33.365Z,23
2018-07-10T12:51:33.639Z,23.05
2018-07-10T12:52:33.132Z,23.25
2018-07-10T12:53:33.374Z,23.38
2018-07-10T12:54:33.370Z,23.55
2018-07-10T12:55:33.364Z,23.72
2018-07-10T12:56:33.420Z,23.85
2018-07-10T12:57:33.384Z,23.87